Startpagina
METAR-TAF:

METAR-TAF

Vliegvelden :

Internationale luchthaven van Nouakchott

Nouakchott, Mauritanië

breedte: 18-18-36N, lengte: 015-58-11W, hoogte: 3 m

Actueel weer

Dit bericht is 38 minuten geleden gemaakt, om 07:00 UTC
Wind 5 kt uit het noorden
Temperatuur 28°C
Vochtigheid 51%
Druk 1010 hPa
Zicht: 4500 m
verspreid stof

METAR: GQNO 220700Z 01005KT 4500 DU NSC 28/17 Q1010 NOSIG

Tijdstip: 07:38 (07:38 UTC)

Verwachting

Dit bericht is 2 uur en het 8 minuten geleden gemaakt, om 05:30 UTC
Verwachting geldig van 22 om 06 UTC tot 23 om 12 UTC
Wind 12 kt uit het noordoosten
Zicht: 7000 m
Kans 40% :
Tijdelijke
van 22 om 10 UTC tot 22 om 17 UTC
Zicht: 4000 m
Stuifstof

TAF: GQNO 220530Z 2206/2312 04012KT 7000 NSC PROB40 TEMPO 2210/2217 4000 BLDU

Waarnemingen en weersverwachtingen van meer dan 4000 vliegvelden (METAR en TAF).

De beschikbare stations zijn de gele en rode punten op de kaart.

Ga met uw muis naar het station om de naam te zien.

Klik dan om waarnemingen en weersverwachtingen te zien.

kaart wijzigen: klik op de groene knoppen met een zwart kruis om in te zoomen, op de groene knop met een streepje om uit te zoomen of op de groene pijlen voor aangrenzende kaarten.


METAR-TAF: